Time;durP1;ratioP1;P1;durP2;ratioP2;P2;SDS_P1;SDS_P2;PMS_P1;PMS_P2;Temp;Humidity;BMP_temperature;BMP_pressure;BME280_temperature;BME280_humidity;BME280_pressure;Samples;Min_cycle;Max_cycle;Signal;HPM_P1;HPM_P2
2022/10/30 00:00:21;;;;;;;;;;;13.90;99.90;;;11.89;100.00;100831.75;10345891;28;20007;-86
2022/10/30 00:05:23;;;;;;;;;;;13.90;99.90;;;11.91;100.00;100837.72;10316079;28;19934;-86
2022/10/30 00:10:26;;;;;;;;;;;13.90;99.90;;;11.90;100.00;100836.06;10345349;28;19933;-86
2022/10/30 00:15:29;;;;;;;;;;;13.90;99.90;;;11.90;100.00;100835.22;10332130;28;20448;-86
2022/10/30 00:20:34;;;;;;;;;;;13.90;99.90;;;11.92;100.00;100833.22;10344080;28;20305;-86
2022/10/30 00:25:37;;;;;;;;;;;13.90;99.90;;;11.92;100.00;100822.56;10347193;28;19985;-86
2022/10/30 00:30:41;;;;;;;;;;;13.90;99.90;;;11.89;100.00;100818.41;10361106;28;19933;-84
2022/10/30 00:35:47;;;;;;;;;;;13.90;99.90;;;11.90;100.00;100824.56;10342317;28;19940;-84
2022/10/30 00:40:51;;;;;;;;;;;13.80;99.90;;;11.90;100.00;100821.91;10323591;28;19977;-84
2022/10/30 00:45:55;;;;;;;;;;;13.90;99.90;;;11.87;100.00;100820.38;10329350;28;19970;-84
2022/10/30 00:50:59;;;;;;;;;;;13.80;99.90;;;11.87;100.00;100817.72;10357036;28;19956;-84
2022/10/30 00:56:05;;;;;;;;;;;13.80;99.90;;;11.86;100.00;100812.56;10361433;28;19933;-84
2022/10/30 01:01:11;;;;;;;;;;;13.80;99.90;;;11.84;100.00;100799.44;10324175;28;19957;-84
2022/10/30 01:06:15;;;;;;;;;;;13.80;99.90;;;11.84;100.00;100794.09;10335263;28;19942;-84
2022/10/30 01:11:18;;;;;;;;;;;13.80;99.90;;;11.85;100.00;100782.44;10344822;28;19941;-84
2022/10/30 01:16:35;;;;;;;;;;;13.80;99.90;;;11.87;100.00;100787.59;10351585;28;19934;-85
2022/10/30 01:22:05;;;;;;;;;;;13.80;99.90;;;11.87;100.00;100780.44;10338218;28;20016;-85
2022/10/30 01:27:34;;;;;;;;;;;13.80;99.90;;;11.87;100.00;100783.09;10319551;28;19969;-85
2022/10/30 01:32:48;;;;;;;;;;;13.90;99.90;;;11.82;100.00;100782.78;10349824;28;19934;-85
2022/10/30 01:38:09;;;;;;;;;;;13.80;99.90;;;11.75;100.00;100781.72;10330046;28;19938;-86
2022/10/30 01:43:12;;;;;;;;;;;13.80;99.90;;;11.74;100.00;100796.84;10358064;28;20337;-86
2022/10/30 01:48:44;;;;;;;;;;;13.80;99.90;;;11.78;100.00;100794.72;10327892;28;19934;-85
2022/10/30 01:54:19;;;;;;;;;;;13.80;99.90;;;11.78;100.00;100781.41;10314244;28;20389;-84
2022/10/30 01:59:48;;;;;;;;;;;13.80;99.90;;;11.78;100.00;100787.56;10317881;28;19934;-84
2022/10/30 02:04:51;;;;;;;;;;;13.80;99.90;;;11.77;100.00;100788.56;10322013;28;19941;-84
2022/10/30 02:09:54;;;;;;;;;;;13.80;99.90;;;11.75;100.00;100779.91;10321275;28;19945;-84
2022/10/30 02:14:59;;;;;;;;;;;13.70;99.90;;;11.74;100.00;100780.03;10315485;28;20020;-84
2022/10/30 02:20:02;;;;;;;;;;;13.70;99.90;;;11.74;100.00;100788.88;10350887;28;20467;-84
2022/10/30 02:25:05;;;;;;;;;;;13.70;99.90;;;11.74;100.00;100772.06;10377346;28;19977;-84
2022/10/30 02:30:09;;;;;;;;;;;13.70;99.90;;;11.71;100.00;100767.06;10357400;28;19933;-84
2022/10/30 02:35:13;;;;;;;;;;;13.70;99.90;;;11.68;99.89;100768.22;10349479;28;19934;-84
2022/10/30 02:40:16;;;;;;;;;;;13.70;99.90;;;11.69;100.00;100779.69;10330860;28;19934;-84
2022/10/30 02:45:19;;;;;;;;;;;13.60;99.90;;;11.69;99.87;100780.53;10337606;28;19969;-85
2022/10/30 02:50:21;;;;;;;;;;;13.70;99.90;;;11.70;99.79;100784.03;10375915;28;19934;-84
2022/10/30 02:55:24;;;;;;;;;;;13.70;99.90;;;11.68;99.93;100773.53;10328350;28;19938;-85
2022/10/30 03:00:27;;;;;;;;;;;13.60;99.90;;;11.70;99.81;100781.38;10336895;28;20617;-85
2022/10/30 03:05:30;;;;;;;;;;;13.70;99.90;;;11.69;99.73;100779.69;10361309;28;19941;-85
2022/10/30 03:10:33;;;;;;;;;;;13.70;99.90;;;11.70;99.72;100786.72;10366861;28;19945;-85
2022/10/30 03:15:35;;;;;;;;;;;13.70;99.90;;;11.70;99.77;100781.38;10340996;28;19934;-84
2022/10/30 03:20:38;;;;;;;;;;;13.70;99.90;;;11.71;99.77;100783.03;10320538;28;19957;-84
2022/10/30 03:25:41;;;;;;;;;;;13.70;99.90;;;11.71;99.76;100781.22;10341300;28;19934;-85
2022/10/30 03:30:44;;;;;;;;;;;13.80;99.90;;;11.72;99.78;100782.88;10331826;28;19996;-85
2022/10/30 03:35:47;;;;;;;;;;;13.70;99.90;;;11.69;99.64;100779.69;10352359;28;19934;-85
2022/10/30 03:40:50;;;;;;;;;;;13.80;99.90;;;11.68;99.74;100778.03;10348975;28;19969;-85
2022/10/30 03:45:54;;;;;;;;;;;13.70;99.90;;;11.68;99.86;100768.22;10356316;28;19940;-84
2022/10/30 03:50:58;;;;;;;;;;;13.70;99.90;;;11.66;100.00;100769.38;10336539;28;19933;-86
2022/10/30 03:56:03;;;;;;;;;;;13.70;99.90;;;11.69;100.00;100758.38;10345336;28;19938;-86
2022/10/30 04:01:09;;;;;;;;;;;13.70;99.90;;;11.70;100.00;100760.91;10331164;28;19933;-86
2022/10/30 04:06:12;;;;;;;;;;;13.80;99.90;;;11.71;100.00;100754.59;10333081;28;19941;-86
2022/10/30 04:11:15;;;;;;;;;;;13.80;99.90;;;11.68;100.00;100752.22;10334557;28;19941;-86
2022/10/30 04:16:17;;;;;;;;;;;13.70;99.90;;;11.69;99.90;100753.06;10350619;28;20036;-86
2022/10/30 04:21:21;;;;;;;;;;;13.70;99.90;;;11.67;100.00;100753.25;10346224;28;20389;-85
2022/10/30 04:26:23;;;;;;;;;;;13.80;99.90;;;11.68;99.94;100751.41;10346117;28;20299;-86
2022/10/30 04:31:26;;;;;;;;;;;13.80;99.90;;;11.67;100.00;100752.41;10325761;28;20032;-86
2022/10/30 04:36:32;;;;;;;;;;;13.70;99.90;;;11.69;100.00;100753.06;10353919;28;20409;-86
2022/10/30 04:41:35;;;;;;;;;;;13.80;99.90;;;11.73;100.00;100765.06;10355659;28;20316;-84
2022/10/30 04:46:38;;;;;;;;;;;13.80;99.90;;;11.74;100.00;100766.72;10349425;28;19981;-85
2022/10/30 04:51:41;;;;;;;;;;;13.80;99.90;;;11.73;100.00;100759.75;10347733;28;19940;-84
2022/10/30 04:56:44;;;;;;;;;;;13.80;99.90;;;11.75;100.00;100757.75;10343968;28;19934;-84
2022/10/30 05:01:46;;;;;;;;;;;13.80;99.90;;;11.76;100.00;100762.09;10315020;28;19957;-84
2022/10/30 05:06:49;;;;;;;;;;;13.80;99.90;;;11.72;99.81;100763.41;10346321;28;20021;-84
2022/10/30 05:11:52;;;;;;;;;;;13.80;99.90;;;11.71;99.83;100777.72;10316653;28;19957;-84
2022/10/30 05:17:01;;;;;;;;;;;13.80;99.90;;;11.69;99.90;100779.69;10333436;28;19934;-84
2022/10/30 05:22:04;;;;;;;;;;;13.70;99.90;;;11.67;99.78;100784.34;10320333;28;19933;-84
2022/10/30 05:27:07;;;;;;;;;;;13.70;99.90;;;11.63;99.77;100778.50;10342857;28;20013;-84
2022/10/30 05:32:10;;;;;;;;;;;13.70;99.90;;;11.62;99.71;100778.66;10331361;28;19934;-84
2022/10/30 05:37:12;;;;;;;;;;;13.60;99.90;;;11.60;100.00;100778.00;10357207;28;19941;-85
2022/10/30 05:42:15;;;;;;;;;;;13.60;99.90;;;11.59;99.94;100779.00;10351257;28;19938;-84
2022/10/30 05:47:18;;;;;;;;;;;13.60;99.90;;;11.58;99.93;100777.34;10334839;28;19934;-85
2022/10/30 05:52:20;;;;;;;;;;;13.60;99.90;;;11.58;100.00;100795.97;10369220;28;19940;-84
2022/10/30 05:57:23;;;;;;;;;;;13.60;99.90;;;11.59;100.00;100792.31;10325159;28;19940;-84
2022/10/30 06:02:26;;;;;;;;;;;13.60;99.90;;;11.60;100.00;100786.81;10333737;28;19985;-84
2022/10/30 06:07:29;;;;;;;;;;;13.60;99.90;;;11.65;100.00;100789.00;10325466;28;20290;-84
2022/10/30 06:12:32;;;;;;;;;;;13.60;99.90;;;11.69;100.00;100775.19;10354791;28;20435;-85
2022/10/30 06:17:34;;;;;;;;;;;13.70;99.90;;;11.73;100.00;100781.03;10357624;28;20033;-85
2022/10/30 06:22:37;;;;;;;;;;;13.70;99.90;;;11.75;100.00;100779.03;10326056;28;20476;-84
2022/10/30 06:27:40;;;;;;;;;;;13.70;99.90;;;11.80;100.00;100793.53;10318839;28;20012;-85
2022/10/30 06:32:43;;;;;;;;;;;13.80;99.90;;;11.88;100.00;100800.78;10343683;28;20497;-84
2022/10/30 06:37:47;;;;;;;;;;;13.90;99.90;;;11.90;100.00;100801.44;10345106;28;19934;-85
2022/10/30 06:42:51;;;;;;;;;;;13.90;99.90;;;11.92;99.85;100802.09;10328895;28;19934;-85
2022/10/30 06:47:54;;;;;;;;;;;14.00;99.90;;;11.90;99.60;100797.94;10335556;28;20146;-85
2022/10/30 06:52:58;;;;;;;;;;;13.90;99.90;;;11.88;99.43;100806.09;10335027;28;19934;-84
2022/10/30 06:58:01;;;;;;;;;;;13.80;99.90;;;11.88;99.48;100814.09;10324747;28;19934;-84
2022/10/30 07:03:07;;;;;;;;;;;13.90;99.90;;;11.87;99.20;100817.72;10336440;28;19934;-84
2022/10/30 07:08:10;;;;;;;;;;;13.90;99.90;;;11.85;99.17;100810.91;10322648;28;19942;-84
2022/10/30 07:13:13;;;;;;;;;;;13.90;99.90;;;11.85;99.12;100810.91;10313520;28;20316;-84
2022/10/30 07:18:16;;;;;;;;;;;13.90;99.90;;;11.86;99.08;100813.41;10324784;28;19941;-84
2022/10/30 07:23:19;;;;;;;;;;;13.90;99.90;;;11.87;98.94;100801.75;10313891;28;20317;-84
2022/10/30 07:28:22;;;;;;;;;;;13.90;99.90;;;11.90;98.90;100809.44;10323263;28;20024;-84
2022/10/30 07:33:24;;;;;;;;;;;13.90;99.90;;;11.95;99.09;100815.13;10309750;28;19934;-83
2022/10/30 07:38:27;;;;;;;;;;;13.90;99.90;;;11.98;99.07;100813.94;10296465;28;19934;-84
2022/10/30 07:43:30;;;;;;;;;;;13.90;99.90;;;12.03;98.99;100820.44;10303297;28;19976;-84
2022/10/30 07:48:33;;;;;;;;;;;14.00;99.90;;;11.97;98.33;100814.94;10314647;28;19989;-84
2022/10/30 07:53:35;;;;;;;;;;;14.00;99.90;;;11.96;98.28;100818.59;10313440;28;19934;-84
2022/10/30 07:58:38;;;;;;;;;;;14.00;99.90;;;11.99;98.42;100819.09;10284137;28;20456;-84
2022/10/30 08:03:47;;;;;;;;;;;14.00;99.90;;;12.03;98.41;100819.63;10324775;28;20039;-82
2022/10/30 08:08:49;;;;;;;;;;;14.10;99.90;;;12.04;98.31;100816.78;10299352;28;20797;-83
2022/10/30 08:13:52;;;;;;;;;;;14.00;99.90;;;12.04;97.98;100816.78;10325440;28;20391;-89
2022/10/30 08:18:55;;;;;;;;;;;14.00;99.90;;;12.12;98.17;100823.16;10315647;28;19974;-89
2022/10/30 08:23:58;;;;;;;;;;;14.00;99.90;;;12.17;98.11;100818.16;10313006;28;19934;-89
2022/10/30 08:29:01;;;;;;;;;;;14.10;99.90;;;12.18;97.67;100818.00;10292445;28;19941;-89
2022/10/30 08:34:04;;;;;;;;;;;14.20;99.90;;;12.13;96.96;100819.50;10289177;28;19934;-89
2022/10/30 08:39:07;;;;;;;;;;;14.20;99.90;;;12.22;97.76;100819.31;10318882;28;19980;-90
2022/10/30 08:44:10;;;;;;;;;;;14.20;99.90;;;12.23;97.17;100814.84;10316752;28;19934;-89
2022/10/30 08:49:13;;;;;;;;;;;14.20;99.90;;;12.30;97.21;100830.03;10363923;28;20028;-89
2022/10/30 08:54:16;;;;;;;;;;;14.30;99.90;;;12.32;97.03;100825.34;10345381;28;19941;-88
2022/10/30 08:59:19;;;;;;;;;;;14.30;99.90;;;12.41;97.16;100828.03;10346784;28;19922;-89
2022/10/30 09:04:23;;;;;;;;;;;14.40;99.90;;;12.43;96.38;100815.38;10363192;28;20468;-89
2022/10/30 09:09:25;;;;;;;;;;;14.40;99.90;;;12.46;96.08;100815.88;10346476;28;20376;-89
2022/10/30 09:14:28;;;;;;;;;;;14.40;99.90;;;12.51;96.35;100824.22;10335507;28;19934;-88
2022/10/30 09:19:31;;;;;;;;;;;14.50;99.90;;;12.54;95.95;100810.56;10296374;28;19934;-89
2022/10/30 09:24:34;;;;;;;;;;;14.50;99.90;;;12.69;96.17;100823.22;10336835;28;19934;-88
2022/10/30 09:29:37;;;;;;;;;;;14.60;99.90;;;12.74;95.79;100812.91;10338180;28;19934;-88
2022/10/30 09:34:40;;;;;;;;;;;14.70;99.90;;;12.85;95.67;100816.06;10367401;28;19937;-89
2022/10/30 09:39:42;;;;;;;;;;;14.80;99.90;;;12.83;94.72;100815.41;10320630;28;19934;-89
2022/10/30 09:44:48;;;;;;;;;;;14.80;99.90;;;12.83;94.58;100812.75;10331572;28;19933;-88
2022/10/30 09:50:31;;;;;;;;;;;14.80;99.90;;;12.86;94.83;100812.38;10345482;28;20033;-87
2022/10/30 09:56:07;;;;;;;;;;;14.80;99.90;;;12.92;94.55;100810.88;10342173;28;19941;-89
2022/10/30 10:01:16;;;;;;;;;;;14.90;99.90;;;12.98;94.31;100804.88;10345536;28;20313;-89
2022/10/30 10:06:19;;;;;;;;;;;15.00;99.90;;;13.07;94.18;100792.34;10332609;28;19941;-89
2022/10/30 10:11:30;;;;;;;;;;;15.00;99.90;;;13.19;94.18;100796.31;10317488;28;20365;-89
2022/10/30 10:16:35;;;;;;;;;;;15.20;99.90;;;13.24;93.39;100788.66;10335648;28;19934;-90
2022/10/30 10:21:52;;;;;;;;;;;15.20;99.90;;;13.31;93.40;100787.00;10308400;28;19973;-88
2022/10/30 10:26:57;;;;;;;;;;;15.30;99.90;;;13.37;92.85;100788.13;10307762;28;19933;-89
2022/10/30 10:32:04;;;;;;;;;;;15.40;99.90;;;13.47;92.79;100786.09;10337442;28;20012;-90
2022/10/30 10:37:48;;;;;;;;;;;15.40;99.90;;;13.54;91.88;100776.41;10369894;28;20016;-89
2022/10/30 10:43:29;;;;;;;;;;;15.60;99.90;;;13.61;91.89;100780.06;10341231;28;20460;-89
2022/10/30 10:48:41;;;;;;;;;;;15.60;99.90;;;13.71;91.88;100774.50;10349352;28;19938;-86
2022/10/30 10:54:01;;;;;;;;;;;15.70;99.90;;;13.78;91.16;100756.75;10346579;28;19934;-84
2022/10/30 10:59:25;;;;;;;;;;;15.80;99.90;;;13.91;90.63;100753.50;10327334;28;19937;-85
2022/10/30 11:04:33;;;;;;;;;;;15.90;99.90;;;14.02;90.13;100750.44;10341401;28;19933;-85
2022/10/30 11:09:36;;;;;;;;;;;16.00;99.90;;;14.05;89.14;100744.75;10347574;28;19941;-87
2022/10/30 11:14:41;;;;;;;;;;;16.10;99.90;;;14.10;89.40;100741.56;10350699;28;19940;-86
2022/10/30 11:19:47;;;;;;;;;;;16.10;99.90;;;14.17;88.79;100743.34;10341261;28;19937;-86
2022/10/30 11:24:53;;;;;;;;;;;16.20;99.90;;;14.26;88.74;100743.25;10330423;28;20024;-85
2022/10/30 11:30:00;;;;;;;;;;;16.20;99.90;;;14.29;88.10;100735.72;10343583;28;19984;-85
2022/10/30 11:35:11;;;;;;;;;;;16.30;99.90;;;14.36;87.81;100736.69;10363691;28;19989;-85
2022/10/30 11:40:15;;;;;;;;;;;16.40;99.90;;;14.37;86.93;100727.63;10371975;28;19977;-85
2022/10/30 11:45:19;;;;;;;;;;;16.50;99.90;;;14.37;87.01;100726.81;10345333;28;19983;-84
2022/10/30 11:50:23;;;;;;;;;;;16.50;99.90;;;14.42;87.04;100724.44;10340689;28;19991;-85
2022/10/30 11:55:31;;;;;;;;;;;16.50;99.90;;;14.45;86.86;100718.72;10345525;28;19934;-85
2022/10/30 12:00:35;;;;;;;;;;;16.50;99.90;;;14.51;86.80;100712.66;10364560;28;19941;-85
2022/10/30 12:05:39;;;;;;;;;;;16.60;99.90;;;14.63;86.94;100716.59;10356934;28;19940;-85
2022/10/30 12:11:04;;;;;;;;;;;16.70;99.90;;;14.70;86.38;100717.53;10342064;28;19941;-85
2022/10/30 12:16:16;;;;;;;;;;;16.80;99.90;;;14.78;85.76;100715.78;10337317;28;19941;-84
2022/10/30 12:21:19;;;;;;;;;;;16.90;99.90;;;14.87;85.86;100714.66;10343985;28;19934;-85
2022/10/30 12:26:23;;;;;;;;;;;17.00;99.90;;;15.04;86.10;100705.44;10328813;28;19933;-85
2022/10/30 12:31:49;;;;;;;;;;;17.10;99.90;;;14.99;84.47;100715.88;10336100;28;19984;-85
2022/10/30 12:37:24;;;;;;;;;;;17.10;99.90;;;15.01;84.68;100721.06;10365340;28;20394;-85
2022/10/30 12:42:27;;;;;;;;;;;17.10;99.90;;;15.03;84.35;100708.31;10332185;28;20417;-85
2022/10/30 12:47:43;;;;;;;;;;;17.10;99.90;;;15.04;84.33;100712.66;10355207;28;20449;-86
2022/10/30 12:52:53;;;;;;;;;;;17.10;99.90;;;14.99;84.08;100708.69;10359896;28;19985;-85
2022/10/30 12:58:25;;;;;;;;;;;17.10;99.90;;;14.88;83.88;100714.50;10314356;28;30895;-85
2022/10/30 13:04:08;;;;;;;;;;;17.00;99.90;;;14.90;84.29;100706.28;10354060;28;19941;-85
2022/10/30 13:09:18;;;;;;;;;;;17.00;99.90;;;14.89;84.14;100708.13;10330704;28;20028;-86
2022/10/30 13:14:43;;;;;;;;;;;17.00;99.90;;;14.84;83.82;100705.16;10350682;28;19934;-85
2022/10/30 13:19:46;;;;;;;;;;;17.00;99.90;;;14.90;84.34;100708.97;10352985;28;20004;-85
2022/10/30 13:25:09;;;;;;;;;;;17.00;99.90;;;14.91;84.21;100713.28;10339825;28;19933;-85
2022/10/30 13:30:19;;;;;;;;;;;17.00;99.90;;;14.86;84.13;100705.81;10343943;28;19933;-86
2022/10/30 13:35:55;;;;;;;;;;;17.00;99.90;;;14.90;84.44;100708.97;10317804;28;19934;-85
2022/10/30 13:41:01;;;;;;;;;;;17.00;99.90;;;14.94;84.46;100707.59;10355940;28;19941;-85
2022/10/30 13:46:09;;;;;;;;;;;17.00;99.90;;;14.99;84.92;100694.47;10334850;28;20290;-85
2022/10/30 13:51:33;;;;;;;;;;;17.00;99.90;;;15.03;84.28;100701.13;10348243;28;19934;-85
2022/10/30 13:56:36;;;;;;;;;;;17.10;99.90;;;15.09;84.50;100700.38;10339610;28;20025;-84
2022/10/30 14:01:50;;;;;;;;;;;17.10;99.90;;;15.18;84.54;100711.84;10335420;28;19937;-84
2022/10/30 14:07:02;;;;;;;;;;;17.30;99.90;;;15.16;84.47;100711.16;10332638;28;19934;-85
2022/10/30 14:12:43;;;;;;;;;;;17.20;99.90;;;15.10;83.88;100712.75;10328981;28;19933;-85
2022/10/30 14:18:10;;;;;;;;;;;17.20;99.90;;;15.05;83.84;100704.44;10333964;28;20413;-85
2022/10/30 14:23:34;;;;;;;;;;;17.10;99.90;;;14.83;84.06;100713.38;10334923;28;19934;-85
2022/10/30 14:28:44;;;;;;;;;;;16.80;99.90;;;14.69;84.51;100710.53;10354866;28;19979;-88
2022/10/30 14:33:54;;;;;;;;;;;16.70;99.90;;;14.58;85.24;100712.81;10339162;28;20063;-84
2022/10/30 14:39:00;;;;;;;;;;;16.50;99.90;;;14.53;85.60;100697.28;10343485;28;19934;-85
2022/10/30 14:44:06;;;;;;;;;;;16.50;99.90;;;14.48;85.89;100694.31;10324430;28;19938;-85
2022/10/30 14:49:28;;;;;;;;;;;16.40;99.90;;;14.45;86.57;100684.81;10353944;28;19981;-85
2022/10/30 14:54:41;;;;;;;;;;;16.40;99.90;;;14.40;86.35;100686.34;10377943;28;20004;-85
2022/10/30 14:59:46;;;;;;;;;;;16.30;99.90;;;14.36;86.83;100679.69;10372266;28;19941;-84
2022/10/30 15:05:04;;;;;;;;;;;16.30;99.90;;;14.30;87.07;100677.75;10333118;28;20310;-85
2022/10/30 15:10:31;;;;;;;;;;;16.20;99.90;;;14.19;87.11;100687.84;10334780;28;19956;-84
2022/10/30 15:15:37;;;;;;;;;;;16.10;99.90;;;14.11;87.58;100684.41;10359860;28;19961;-84
2022/10/30 15:20:40;;;;;;;;;;;16.00;99.90;;;14.02;87.69;100680.97;10360259;28;20016;-85
2022/10/30 15:25:46;;;;;;;;;;;15.90;99.90;;;13.92;87.75;100680.38;10342345;28;19938;-84
2022/10/30 15:31:00;;;;;;;;;;;15.80;99.90;;;13.84;88.07;100691.94;10338838;28;19937;-84
2022/10/30 15:36:03;;;;;;;;;;;15.80;99.90;;;13.75;88.43;100700.19;10351579;28;20028;-84
2022/10/30 15:41:08;;;;;;;;;;;15.70;99.90;;;13.70;88.66;100686.53;10339180;28;19934;-84
2022/10/30 15:46:13;;;;;;;;;;;15.70;99.90;;;13.61;88.91;100693.75;10320538;28;19934;-84
2022/10/30 15:51:21;;;;;;;;;;;15.60;99.90;;;13.56;89.17;100696.97;10335152;28;19938;-85
2022/10/30 15:56:41;;;;;;;;;;;15.60;99.90;;;13.50;89.55;100692.31;10319972;28;19934;-85
2022/10/30 16:02:20;;;;;;;;;;;15.50;99.90;;;13.47;89.81;100698.00;10338727;28;19938;-84
2022/10/30 16:07:27;;;;;;;;;;;15.50;99.90;;;13.41;90.00;100698.69;10332005;28;19934;-83
2022/10/30 16:12:33;;;;;;;;;;;15.40;99.90;;;13.38;90.00;100699.06;10335886;28;19941;-83
2022/10/30 16:17:36;;;;;;;;;;;15.40;99.90;;;13.35;90.21;100696.72;10344505;28;19940;-83
2022/10/30 16:22:39;;;;;;;;;;;15.30;99.90;;;13.30;90.38;100702.56;10330473;28;19941;-83
2022/10/30 16:27:43;;;;;;;;;;;15.30;99.90;;;13.28;90.66;100709.94;10340670;28;19934;-83
2022/10/30 16:32:55;;;;;;;;;;;15.30;99.90;;;13.27;91.02;100707.44;10355242;28;19934;-83
2022/10/30 16:38:01;;;;;;;;;;;15.30;99.90;;;13.23;91.10;100703.44;10330730;28;19969;-83
2022/10/30 16:43:21;;;;;;;;;;;15.30;99.90;;;13.22;91.59;100707.97;10344936;28;19956;-83
2022/10/30 16:48:27;;;;;;;;;;;15.30;99.90;;;13.22;91.70;100702.63;10299248;28;19934;-83
2022/10/30 16:53:30;;;;;;;;;;;15.30;99.90;;;13.21;91.73;100702.81;10338488;28;20000;-83
2022/10/30 16:58:33;;;;;;;;;;;15.30;99.90;;;13.21;91.78;100708.13;10323340;28;20033;-83
2022/10/30 17:03:39;;;;;;;;;;;15.20;99.90;;;13.21;91.93;100702.81;10323435;28;19941;-84
2022/10/30 17:08:42;;;;;;;;;;;15.20;99.90;;;13.20;92.08;100701.94;10321544;28;19934;-83
2022/10/30 17:14:16;;;;;;;;;;;15.20;99.90;;;13.16;91.95;100707.78;10333777;28;20470;-83
2022/10/30 17:19:31;;;;;;;;;;;15.20;99.90;;;13.15;92.14;100724.81;10319839;28;19934;-83
2022/10/30 17:24:36;;;;;;;;;;;15.20;99.90;;;13.13;92.26;100733.81;10329161;28;19934;-84
2022/10/30 17:29:39;;;;;;;;;;;15.20;99.90;;;13.11;92.58;100727.81;10302603;28;19970;-83
2022/10/30 17:34:41;;;;;;;;;;;15.10;99.90;;;13.12;92.55;100736.63;10313347;28;19934;-83
2022/10/30 17:39:44;;;;;;;;;;;15.10;99.90;;;13.10;92.66;100734.16;10302846;28;19934;-83
2022/10/30 17:44:47;;;;;;;;;;;15.10;99.90;;;13.09;92.70;100737.81;10312074;28;20333;-84
2022/10/30 17:49:50;;;;;;;;;;;15.10;99.90;;;13.11;92.87;100735.81;10325481;28;19933;-84
2022/10/30 17:54:53;;;;;;;;;;;15.10;99.90;;;13.12;92.86;100739.31;10373939;28;19940;-83
2022/10/30 17:59:55;;;;;;;;;;;15.10;99.90;;;13.08;93.16;100741.50;10339359;28;19934;-84
2022/10/30 18:04:58;;;;;;;;;;;15.10;99.90;;;13.09;93.39;100732.50;10343049;28;19933;-83
2022/10/30 18:10:01;;;;;;;;;;;15.10;99.90;;;13.06;93.22;100724.81;10359276;28;19933;-84
2022/10/30 18:15:30;;;;;;;;;;;15.10;99.90;;;13.08;93.44;100730.81;10338065;28;19941;-84
2022/10/30 18:20:32;;;;;;;;;;;15.10;99.90;;;13.06;93.26;100727.47;10327543;28;19997;-84
2022/10/30 18:25:35;;;;;;;;;;;15.10;99.90;;;13.04;93.47;100724.16;10313041;28;19934;-83
2022/10/30 18:30:38;;;;;;;;;;;15.10;99.90;;;13.07;93.90;100729.16;10325298;28;19933;-84
2022/10/30 18:35:41;;;;;;;;;;;15.10;99.90;;;13.05;93.74;100733.81;10325877;28;19941;-84
2022/10/30 18:40:46;;;;;;;;;;;15.10;99.90;;;13.04;93.92;100718.81;10310799;28;19965;-84
2022/10/30 18:45:49;;;;;;;;;;;15.10;99.90;;;13.04;93.64;100731.34;10334746;28;19934;-83
2022/10/30 18:50:52;;;;;;;;;;;15.10;99.90;;;13.01;93.87;100729.00;10332355;28;19980;-84
2022/10/30 18:55:55;;;;;;;;;;;15.00;99.90;;;13.01;94.06;100734.31;10332260;28;20416;-83
2022/10/30 19:00:58;;;;;;;;;;;15.00;99.90;;;13.00;93.84;100738.84;10332045;28;19940;-83
2022/10/30 19:06:17;;;;;;;;;;;15.00;99.90;;;12.96;93.86;100740.19;10321903;28;19997;-83
2022/10/30 19:11:20;;;;;;;;;;;15.00;99.90;;;12.92;93.73;100732.69;10313289;28;19941;-83
2022/10/30 19:16:27;;;;;;;;;;;14.90;99.90;;;12.91;93.90;100729.19;10317616;28;19934;-84
2022/10/30 19:21:34;;;;;;;;;;;14.90;99.90;;;12.88;94.29;100726.84;10326172;28;20369;-84
2022/10/30 19:26:37;;;;;;;;;;;14.90;99.90;;;12.88;94.42;100724.19;10330260;28;20061;-83
2022/10/30 19:31:40;;;;;;;;;;;14.90;99.90;;;12.89;94.49;100728.53;10344592;28;19984;-83
2022/10/30 19:36:43;;;;;;;;;;;14.90;99.90;;;12.91;94.58;100736.38;10332946;28;19934;-83
2022/10/30 19:41:45;;;;;;;;;;;14.90;99.90;;;12.87;94.45;100738.53;10361836;28;20000;-83
2022/10/30 19:46:48;;;;;;;;;;;14.90;99.90;;;12.84;94.51;100738.88;10339362;28;20375;-83
2022/10/30 19:51:51;;;;;;;;;;;14.80;99.90;;;12.83;94.50;100737.19;10349543;28;19938;-83
2022/10/30 19:56:54;;;;;;;;;;;14.80;99.90;;;12.82;94.66;100735.53;10322943;28;19973;-83
2022/10/30 20:01:56;;;;;;;;;;;14.80;99.90;;;12.83;94.70;100753.19;10324345;28;20028;-83
2022/10/30 20:06:59;;;;;;;;;;;14.80;99.90;;;12.83;94.92;100737.19;10366121;28;19934;-83
2022/10/30 20:12:05;;;;;;;;;;;14.80;99.90;;;12.84;94.90;100744.22;10368267;28;19965;-83
2022/10/30 20:17:09;;;;;;;;;;;14.80;99.90;;;12.80;95.08;100738.38;10362191;28;19985;-84
2022/10/30 20:22:12;;;;;;;;;;;14.80;99.90;;;12.83;95.11;100742.53;10364644;28;19940;-83
2022/10/30 20:27:15;;;;;;;;;;;14.80;99.90;;;12.84;95.18;100752.22;10344727;28;20411;-83
2022/10/30 20:32:17;;;;;;;;;;;14.80;99.90;;;12.83;95.20;100742.53;10366333;28;19934;-84
2022/10/30 20:37:21;;;;;;;;;;;14.80;99.90;;;12.82;95.18;100735.53;10324606;28;19933;-84
2022/10/30 20:42:24;;;;;;;;;;;14.80;99.90;;;12.83;95.20;100737.19;10336407;28;19941;-83
2022/10/30 20:47:27;;;;;;;;;;;14.90;99.90;;;12.82;95.25;100728.38;10349351;28;19934;-83
2022/10/30 20:52:29;;;;;;;;;;;14.80;99.90;;;12.80;95.21;100724.22;10338723;28;19934;-84
2022/10/30 20:57:33;;;;;;;;;;;14.80;99.90;;;12.81;95.21;100729.38;10362675;28;19941;-84
2022/10/30 21:02:36;;;;;;;;;;;14.80;99.90;;;12.80;95.35;100729.56;10327337;28;19934;-84
2022/10/30 21:07:39;;;;;;;;;;;14.80;99.90;;;12.74;95.22;100733.72;10363773;28;20402;-84
2022/10/30 21:12:41;;;;;;;;;;;14.70;99.90;;;12.72;95.17;100725.06;10347040;28;20317;-83
2022/10/30 21:17:45;;;;;;;;;;;14.70;99.90;;;12.69;95.19;100729.91;10375223;28;19933;-84
2022/10/30 21:22:48;;;;;;;;;;;14.70;99.90;;;12.67;95.22;100731.91;10344397;28;20376;-84
2022/10/30 21:27:51;;;;;;;;;;;14.70;99.90;;;12.64;95.33;100737.56;10330377;28;20437;-84
2022/10/30 21:32:53;;;;;;;;;;;14.60;99.90;;;12.59;95.29;100725.59;10356266;28;19934;-84
2022/10/30 21:37:56;;;;;;;;;;;14.60;99.90;;;12.57;95.68;100732.91;10345072;28;19941;-83
2022/10/30 21:42:59;;;;;;;;;;;14.60;99.90;;;12.55;95.55;100718.09;10338510;28;20290;-84
2022/10/30 21:48:06;;;;;;;;;;;14.60;99.90;;;12.48;95.33;100720.59;10293443;28;19942;-83
2022/10/30 21:53:09;;;;;;;;;;;14.50;99.90;;;12.48;96.17;100717.94;10313539;28;20338;-83
2022/10/30 21:58:12;;;;;;;;;;;14.50;99.90;;;12.45;95.92;100728.91;10314999;28;19934;-84
2022/10/30 22:03:14;;;;;;;;;;;14.50;99.90;;;12.46;96.13;100729.75;10318236;28;20416;-83
2022/10/30 22:08:17;;;;;;;;;;;14.50;99.90;;;12.43;96.14;100722.94;10321818;28;19934;-83
2022/10/30 22:13:20;;;;;;;;;;;14.40;99.90;;;12.44;96.07;100721.09;10310690;28;19965;-83
2022/10/30 22:18:23;;;;;;;;;;;14.40;99.90;;;12.41;95.86;100719.56;10331913;28;19969;-83
2022/10/30 22:23:27;;;;;;;;;;;14.50;99.90;;;12.41;96.07;100724.06;10296668;28;19934;-83
2022/10/30 22:28:31;;;;;;;;;;;14.40;99.90;;;12.40;96.11;100714.41;10308761;28;19934;-83
2022/10/30 22:33:35;;;;;;;;;;;14.40;99.90;;;12.37;96.31;100742.25;10306203;28;19984;-84
2022/10/30 22:38:40;;;;;;;;;;;14.40;99.90;;;12.38;96.52;100725.25;10323522;28;20029;-84
2022/10/30 22:43:44;;;;;;;;;;;14.30;99.90;;;12.31;96.22;100724.25;10333552;28;19941;-83
2022/10/30 22:48:47;;;;;;;;;;;14.40;99.90;;;12.31;96.48;100729.59;10297102;28;21070;-84
2022/10/30 22:53:58;;;;;;;;;;;14.30;99.90;;;12.29;96.92;100731.56;10315540;28;19934;-84